sensor_id;sensor_type;location;lat;lon;timestamp;P1;durP1;ratioP1;P2;durP2;ratioP2
19285;SDS011;9776;50.798;6.430;2022-07-29T00:01:25;1.40;;;1.30;;
19285;SDS011;9776;50.798;6.430;2022-07-29T00:03:52;1.50;;;1.30;;
19285;SDS011;9776;50.798;6.430;2022-07-29T00:06:18;2.13;;;1.33;;
19285;SDS011;9776;50.798;6.430;2022-07-29T00:08:47;2.50;;;1.40;;
19285;SDS011;9776;50.798;6.430;2022-07-29T00:11:14;2.17;;;1.40;;
19285;SDS011;9776;50.798;6.430;2022-07-29T00:13:40;1.55;;;1.23;;
19285;SDS011;9776;50.798;6.430;2022-07-29T00:16:07;1.15;;;1.05;;
19285;SDS011;9776;50.798;6.430;2022-07-29T00:18:34;1.63;;;1.38;;
19285;SDS011;9776;50.798;6.430;2022-07-29T00:21:01;1.48;;;1.13;;
19285;SDS011;9776;50.798;6.430;2022-07-29T00:23:28;2.25;;;1.20;;
19285;SDS011;9776;50.798;6.430;2022-07-29T00:25:56;1.40;;;1.30;;
19285;SDS011;9776;50.798;6.430;2022-07-29T00:28:22;1.98;;;1.10;;
19285;SDS011;9776;50.798;6.430;2022-07-29T00:30:49;5.13;;;1.67;;
19285;SDS011;9776;50.798;6.430;2022-07-29T00:33:16;1.40;;;1.30;;
19285;SDS011;9776;50.798;6.430;2022-07-29T00:35:43;1.45;;;1.35;;
19285;SDS011;9776;50.798;6.430;2022-07-29T00:38:08;1.50;;;1.40;;
19285;SDS011;9776;50.798;6.430;2022-07-29T00:40:35;1.55;;;1.40;;
19285;SDS011;9776;50.798;6.430;2022-07-29T00:43:03;2.20;;;1.25;;
19285;SDS011;9776;50.798;6.430;2022-07-29T00:45:30;1.98;;;1.42;;
19285;SDS011;9776;50.798;6.430;2022-07-29T00:47:57;1.50;;;1.40;;
19285;SDS011;9776;50.798;6.430;2022-07-29T00:50:24;1.67;;;1.40;;
19285;SDS011;9776;50.798;6.430;2022-07-29T00:52:51;3.85;;;1.42;;
19285;SDS011;9776;50.798;6.430;2022-07-29T00:55:18;1.70;;;1.60;;
19285;SDS011;9776;50.798;6.430;2022-07-29T00:57:46;1.60;;;1.50;;
19285;SDS011;9776;50.798;6.430;2022-07-29T01:00:15;1.50;;;1.40;;
19285;SDS011;9776;50.798;6.430;2022-07-29T01:02:44;1.40;;;1.35;;
19285;SDS011;9776;50.798;6.430;2022-07-29T01:05:13;1.50;;;1.40;;
19285;SDS011;9776;50.798;6.430;2022-07-29T01:07:40;1.25;;;1.15;;
19285;SDS011;9776;50.798;6.430;2022-07-29T01:10:09;1.40;;;1.30;;
19285;SDS011;9776;50.798;6.430;2022-07-29T01:12:38;2.72;;;1.50;;
19285;SDS011;9776;50.798;6.430;2022-07-29T01:15:06;2.20;;;1.67;;
19285;SDS011;9776;50.798;6.430;2022-07-29T01:17:39;1.30;;;1.30;;
19285;SDS011;9776;50.798;6.430;2022-07-29T01:20:10;1.77;;;1.67;;
19285;SDS011;9776;50.798;6.430;2022-07-29T01:22:45;2.22;;;2.03;;
19285;SDS011;9776;50.798;6.430;2022-07-29T01:25:32;2.45;;;1.75;;
19285;SDS011;9776;50.798;6.430;2022-07-29T01:31:16;3.40;;;1.95;;
19285;SDS011;9776;50.798;6.430;2022-07-29T01:33:49;1.80;;;1.70;;
19285;SDS011;9776;50.798;6.430;2022-07-29T01:36:22;2.08;;;1.63;;
19285;SDS011;9776;50.798;6.430;2022-07-29T01:38:57;2.30;;;1.75;;
19285;SDS011;9776;50.798;6.430;2022-07-29T01:41:31;1.70;;;1.60;;
19285;SDS011;9776;50.798;6.430;2022-07-29T01:44:04;2.50;;;2.03;;
19285;SDS011;9776;50.798;6.430;2022-07-29T01:46:40;1.83;;;1.73;;
19285;SDS011;9776;50.798;6.430;2022-07-29T01:49:14;1.75;;;1.65;;
19285;SDS011;9776;50.798;6.430;2022-07-29T01:51:43;1.88;;;1.70;;
19285;SDS011;9776;50.798;6.430;2022-07-29T01:54:15;3.40;;;2.20;;
19285;SDS011;9776;50.798;6.430;2022-07-29T01:56:47;2.55;;;1.98;;
19285;SDS011;9776;50.798;6.430;2022-07-29T01:59:18;2.30;;;2.08;;
19285;SDS011;9776;50.798;6.430;2022-07-29T02:01:48;4.88;;;2.10;;
19285;SDS011;9776;50.798;6.430;2022-07-29T02:04:19;2.08;;;1.73;;
19285;SDS011;9776;50.798;6.430;2022-07-29T02:06:47;2.00;;;1.83;;
19285;SDS011;9776;50.798;6.430;2022-07-29T02:09:17;2.20;;;1.75;;
19285;SDS011;9776;50.798;6.430;2022-07-29T02:11:47;2.30;;;2.05;;
19285;SDS011;9776;50.798;6.430;2022-07-29T02:14:19;2.25;;;1.90;;
19285;SDS011;9776;50.798;6.430;2022-07-29T02:16:47;2.50;;;1.50;;
19285;SDS011;9776;50.798;6.430;2022-07-29T02:19:18;2.55;;;1.98;;
19285;SDS011;9776;50.798;6.430;2022-07-29T02:21:47;1.92;;;1.80;;
19285;SDS011;9776;50.798;6.430;2022-07-29T02:24:15;2.28;;;2.08;;
19285;SDS011;9776;50.798;6.430;2022-07-29T02:26:44;3.20;;;1.85;;
19285;SDS011;9776;50.798;6.430;2022-07-29T02:29:12;4.43;;;1.70;;
19285;SDS011;9776;50.798;6.430;2022-07-29T02:31:42;3.78;;;1.77;;
19285;SDS011;9776;50.798;6.430;2022-07-29T02:34:12;1.83;;;1.70;;
19285;SDS011;9776;50.798;6.430;2022-07-29T02:36:41;2.33;;;2.00;;
19285;SDS011;9776;50.798;6.430;2022-07-29T02:39:10;2.72;;;1.83;;
19285;SDS011;9776;50.798;6.430;2022-07-29T02:41:40;2.97;;;1.85;;
19285;SDS011;9776;50.798;6.430;2022-07-29T02:44:12;2.88;;;2.10;;
19285;SDS011;9776;50.798;6.430;2022-07-29T02:46:45;2.03;;;1.75;;
19285;SDS011;9776;50.798;6.430;2022-07-29T02:49:16;2.58;;;1.80;;
19285;SDS011;9776;50.798;6.430;2022-07-29T02:51:49;2.15;;;1.67;;
19285;SDS011;9776;50.798;6.430;2022-07-29T02:54:23;1.90;;;1.80;;
19285;SDS011;9776;50.798;6.430;2022-07-29T02:56:55;1.60;;;1.50;;
19285;SDS011;9776;50.798;6.430;2022-07-29T02:59:27;2.13;;;1.70;;
19285;SDS011;9776;50.798;6.430;2022-07-29T03:01:58;1.90;;;1.73;;
19285;SDS011;9776;50.798;6.430;2022-07-29T03:04:27;2.70;;;1.70;;
19285;SDS011;9776;50.798;6.430;2022-07-29T03:06:58;2.03;;;1.83;;
19285;SDS011;9776;50.798;6.430;2022-07-29T03:09:26;1.90;;;1.70;;
19285;SDS011;9776;50.798;6.430;2022-07-29T03:11:54;1.92;;;1.80;;
19285;SDS011;9776;50.798;6.430;2022-07-29T03:14:22;1.88;;;1.67;;
19285;SDS011;9776;50.798;6.430;2022-07-29T03:16:49;1.80;;;1.70;;
19285;SDS011;9776;50.798;6.430;2022-07-29T03:19:18;2.58;;;2.05;;
19285;SDS011;9776;50.798;6.430;2022-07-29T03:21:46;2.03;;;1.83;;
19285;SDS011;9776;50.798;6.430;2022-07-29T03:24:24;2.55;;;1.67;;
19285;SDS011;9776;50.798;6.430;2022-07-29T03:26:54;1.88;;;1.67;;
19285;SDS011;9776;50.798;6.430;2022-07-29T03:29:23;1.92;;;1.70;;
19285;SDS011;9776;50.798;6.430;2022-07-29T03:31:50;1.70;;;1.60;;
19285;SDS011;9776;50.798;6.430;2022-07-29T03:34:18;1.70;;;1.60;;
19285;SDS011;9776;50.798;6.430;2022-07-29T03:36:46;1.80;;;1.70;;
19285;SDS011;9776;50.798;6.430;2022-07-29T03:39:14;1.80;;;1.67;;
19285;SDS011;9776;50.798;6.430;2022-07-29T03:41:43;1.88;;;1.77;;
19285;SDS011;9776;50.798;6.430;2022-07-29T03:44:13;1.77;;;1.50;;
19285;SDS011;9776;50.798;6.430;2022-07-29T03:46:42;2.17;;;1.70;;
19285;SDS011;9776;50.798;6.430;2022-07-29T03:49:10;2.03;;;1.67;;
19285;SDS011;9776;50.798;6.430;2022-07-29T03:51:42;1.77;;;1.67;;
19285;SDS011;9776;50.798;6.430;2022-07-29T03:54:09;1.60;;;1.50;;
19285;SDS011;9776;50.798;6.430;2022-07-29T03:56:37;2.33;;;1.70;;
19285;SDS011;9776;50.798;6.430;2022-07-29T03:59:05;1.83;;;1.55;;
19285;SDS011;9776;50.798;6.430;2022-07-29T04:01:33;1.88;;;1.77;;
19285;SDS011;9776;50.798;6.430;2022-07-29T04:04:01;1.80;;;1.63;;
19285;SDS011;9776;50.798;6.430;2022-07-29T04:06:36;1.55;;;1.45;;
19285;SDS011;9776;50.798;6.430;2022-07-29T04:09:05;1.90;;;1.80;;
19285;SDS011;9776;50.798;6.430;2022-07-29T04:11:32;1.63;;;1.52;;
19285;SDS011;9776;50.798;6.430;2022-07-29T04:13:59;2.13;;;1.40;;
19285;SDS011;9776;50.798;6.430;2022-07-29T04:16:25;2.17;;;1.80;;
19285;SDS011;9776;50.798;6.430;2022-07-29T04:18:52;3.22;;;1.70;;
19285;SDS011;9776;50.798;6.430;2022-07-29T04:21:19;2.40;;;1.58;;
19285;SDS011;9776;50.798;6.430;2022-07-29T04:23:46;2.05;;;1.55;;
19285;SDS011;9776;50.798;6.430;2022-07-29T04:26:16;2.13;;;1.60;;
19285;SDS011;9776;50.798;6.430;2022-07-29T04:28:43;1.70;;;1.60;;
19285;SDS011;9776;50.798;6.430;2022-07-29T04:31:11;2.78;;;1.80;;
19285;SDS011;9776;50.798;6.430;2022-07-29T04:33:38;2.30;;;1.55;;
19285;SDS011;9776;50.798;6.430;2022-07-29T04:36:05;2.22;;;1.55;;
19285;SDS011;9776;50.798;6.430;2022-07-29T04:38:32;1.50;;;1.40;;
19285;SDS011;9776;50.798;6.430;2022-07-29T04:40:59;1.65;;;1.40;;
19285;SDS011;9776;50.798;6.430;2022-07-29T04:43:28;1.60;;;1.50;;
19285;SDS011;9776;50.798;6.430;2022-07-29T04:45:54;1.40;;;1.27;;
19285;SDS011;9776;50.798;6.430;2022-07-29T04:48:21;1.50;;;1.38;;
19285;SDS011;9776;50.798;6.430;2022-07-29T04:50:48;1.38;;;1.27;;
19285;SDS011;9776;50.798;6.430;2022-07-29T04:53:15;2.45;;;1.40;;
19285;SDS011;9776;50.798;6.430;2022-07-29T04:55:41;1.85;;;1.42;;
19285;SDS011;9776;50.798;6.430;2022-07-29T04:58:08;1.50;;;1.40;;
19285;SDS011;9776;50.798;6.430;2022-07-29T05:00:36;2.03;;;1.50;;
19285;SDS011;9776;50.798;6.430;2022-07-29T05:03:03;2.22;;;1.70;;
19285;SDS011;9776;50.798;6.430;2022-07-29T05:05:30;3.20;;;1.65;;
19285;SDS011;9776;50.798;6.430;2022-07-29T05:07:57;1.60;;;1.50;;
19285;SDS011;9776;50.798;6.430;2022-07-29T05:10:24;1.58;;;1.48;;
19285;SDS011;9776;50.798;6.430;2022-07-29T05:12:51;1.55;;;1.45;;
19285;SDS011;9776;50.798;6.430;2022-07-29T05:15:17;2.03;;;1.80;;
19285;SDS011;9776;50.798;6.430;2022-07-29T05:17:46;1.52;;;1.38;;
19285;SDS011;9776;50.798;6.430;2022-07-29T05:20:13;2.00;;;1.30;;
19285;SDS011;9776;50.798;6.430;2022-07-29T05:22:39;2.05;;;1.50;;
19285;SDS011;9776;50.798;6.430;2022-07-29T05:25:06;1.67;;;1.58;;
19285;SDS011;9776;50.798;6.430;2022-07-29T05:27:34;1.60;;;1.50;;
19285;SDS011;9776;50.798;6.430;2022-07-29T05:30:01;1.73;;;1.60;;
19285;SDS011;9776;50.798;6.430;2022-07-29T05:32:38;1.42;;;1.33;;
19285;SDS011;9776;50.798;6.430;2022-07-29T05:35:18;3.97;;;1.42;;
19285;SDS011;9776;50.798;6.430;2022-07-29T05:37:45;1.60;;;1.35;;
19285;SDS011;9776;50.798;6.430;2022-07-29T05:40:11;2.13;;;1.58;;
19285;SDS011;9776;50.798;6.430;2022-07-29T05:42:54;1.80;;;1.70;;
19285;SDS011;9776;50.798;6.430;2022-07-29T05:45:36;1.55;;;1.40;;
19285;SDS011;9776;50.798;6.430;2022-07-29T05:48:06;1.70;;;1.60;;
19285;SDS011;9776;50.798;6.430;2022-07-29T05:50:33;2.35;;;1.70;;
19285;SDS011;9776;50.798;6.430;2022-07-29T05:53:00;1.48;;;1.38;;
19285;SDS011;9776;50.798;6.430;2022-07-29T05:55:27;1.85;;;1.65;;
19285;SDS011;9776;50.798;6.430;2022-07-29T05:57:53;2.65;;;1.27;;
19285;SDS011;9776;50.798;6.430;2022-07-29T06:00:20;1.67;;;1.58;;
19285;SDS011;9776;50.798;6.430;2022-07-29T06:02:47;1.65;;;1.52;;
19285;SDS011;9776;50.798;6.430;2022-07-29T06:05:15;1.92;;;1.60;;
19285;SDS011;9776;50.798;6.430;2022-07-29T06:07:42;1.70;;;1.35;;
19285;SDS011;9776;50.798;6.430;2022-07-29T06:10:09;2.08;;;1.40;;
19285;SDS011;9776;50.798;6.430;2022-07-29T06:12:36;1.42;;;1.33;;
19285;SDS011;9776;50.798;6.430;2022-07-29T06:15:03;1.63;;;1.40;;
19285;SDS011;9776;50.798;6.430;2022-07-29T06:17:30;1.63;;;1.52;;
19285;SDS011;9776;50.798;6.430;2022-07-29T06:19:57;1.65;;;1.55;;
19285;SDS011;9776;50.798;6.430;2022-07-29T06:22:25;4.60;;;1.30;;
19285;SDS011;9776;50.798;6.430;2022-07-29T06:24:52;1.95;;;1.70;;
19285;SDS011;9776;50.798;6.430;2022-07-29T06:27:19;1.40;;;1.30;;
19285;SDS011;9776;50.798;6.430;2022-07-29T06:29:46;1.75;;;1.65;;
19285;SDS011;9776;50.798;6.430;2022-07-29T06:32:12;3.03;;;1.70;;
19285;SDS011;9776;50.798;6.430;2022-07-29T06:34:39;2.22;;;1.80;;
19285;SDS011;9776;50.798;6.430;2022-07-29T06:37:06;2.22;;;1.58;;
19285;SDS011;9776;50.798;6.430;2022-07-29T06:39:35;1.70;;;1.60;;
19285;SDS011;9776;50.798;6.430;2022-07-29T06:42:02;1.88;;;1.70;;
19285;SDS011;9776;50.798;6.430;2022-07-29T06:44:30;1.63;;;1.52;;
19285;SDS011;9776;50.798;6.430;2022-07-29T06:46:58;1.45;;;1.35;;
19285;SDS011;9776;50.798;6.430;2022-07-29T06:49:25;1.48;;;1.40;;
19285;SDS011;9776;50.798;6.430;2022-07-29T06:51:52;1.65;;;1.30;;
19285;SDS011;9776;50.798;6.430;2022-07-29T06:54:19;1.50;;;1.40;;
19285;SDS011;9776;50.798;6.430;2022-07-29T06:56:48;1.45;;;1.35;;
19285;SDS011;9776;50.798;6.430;2022-07-29T06:59:14;2.00;;;1.80;;
19285;SDS011;9776;50.798;6.430;2022-07-29T07:01:42;1.90;;;1.48;;
19285;SDS011;9776;50.798;6.430;2022-07-29T07:04:09;2.00;;;1.60;;
19285;SDS011;9776;50.798;6.430;2022-07-29T07:06:36;1.58;;;1.48;;
19285;SDS011;9776;50.798;6.430;2022-07-29T07:09:03;1.80;;;1.70;;
19285;SDS011;9776;50.798;6.430;2022-07-29T07:11:30;1.60;;;1.50;;
19285;SDS011;9776;50.798;6.430;2022-07-29T07:13:58;2.17;;;1.67;;
19285;SDS011;9776;50.798;6.430;2022-07-29T07:16:25;2.08;;;1.98;;
19285;SDS011;9776;50.798;6.430;2022-07-29T07:18:52;2.00;;;1.80;;
19285;SDS011;9776;50.798;6.430;2022-07-29T07:21:19;1.70;;;1.60;;
19285;SDS011;9776;50.798;6.430;2022-07-29T07:23:45;1.80;;;1.55;;
19285;SDS011;9776;50.798;6.430;2022-07-29T07:26:12;3.63;;;1.90;;
19285;SDS011;9776;50.798;6.430;2022-07-29T07:28:39;1.80;;;1.70;;
19285;SDS011;9776;50.798;6.430;2022-07-29T07:31:07;1.92;;;1.73;;
19285;SDS011;9776;50.798;6.430;2022-07-29T07:33:34;3.55;;;2.10;;
19285;SDS011;9776;50.798;6.430;2022-07-29T07:36:01;2.00;;;1.90;;
19285;SDS011;9776;50.798;6.430;2022-07-29T07:38:28;2.03;;;1.88;;
19285;SDS011;9776;50.798;6.430;2022-07-29T07:40:54;2.58;;;2.20;;
19285;SDS011;9776;50.798;6.430;2022-07-29T07:43:21;3.63;;;2.22;;
19285;SDS011;9776;50.798;6.430;2022-07-29T07:45:48;2.20;;;2.10;;
19285;SDS011;9776;50.798;6.430;2022-07-29T07:48:16;2.40;;;2.20;;
19285;SDS011;9776;50.798;6.430;2022-07-29T07:50:43;2.10;;;1.90;;
19285;SDS011;9776;50.798;6.430;2022-07-29T07:53:10;2.55;;;2.35;;
19285;SDS011;9776;50.798;6.430;2022-07-29T07:55:39;2.55;;;2.35;;
19285;SDS011;9776;50.798;6.430;2022-07-29T07:58:06;2.00;;;1.90;;
19285;SDS011;9776;50.798;6.430;2022-07-29T08:00:33;1.92;;;1.83;;
19285;SDS011;9776;50.798;6.430;2022-07-29T08:02:59;1.92;;;1.58;;
19285;SDS011;9776;50.798;6.430;2022-07-29T08:05:28;1.65;;;1.42;;
19285;SDS011;9776;50.798;6.430;2022-07-29T08:07:55;1.65;;;1.55;;
19285;SDS011;9776;50.798;6.430;2022-07-29T08:10:21;1.50;;;1.40;;
19285;SDS011;9776;50.798;6.430;2022-07-29T08:13:02;2.05;;;1.38;;
19285;SDS011;9776;50.798;6.430;2022-07-29T08:15:29;1.60;;;1.40;;
19285;SDS011;9776;50.798;6.430;2022-07-29T08:17:56;2.10;;;1.50;;
19285;SDS011;9776;50.798;6.430;2022-07-29T08:20:23;2.28;;;1.67;;
19285;SDS011;9776;50.798;6.430;2022-07-29T08:22:51;1.88;;;1.77;;
19285;SDS011;9776;50.798;6.430;2022-07-29T08:25:18;1.92;;;1.77;;
19285;SDS011;9776;50.798;6.430;2022-07-29T08:27:45;1.48;;;1.38;;
19285;SDS011;9776;50.798;6.430;2022-07-29T08:30:12;1.80;;;1.30;;
19285;SDS011;9776;50.798;6.430;2022-07-29T08:32:39;1.33;;;1.20;;
19285;SDS011;9776;50.798;6.430;2022-07-29T08:35:06;1.42;;;1.27;;
19285;SDS011;9776;50.798;6.430;2022-07-29T08:37:34;2.00;;;1.20;;
19285;SDS011;9776;50.798;6.430;2022-07-29T08:40:02;1.40;;;1.30;;
19285;SDS011;9776;50.798;6.430;2022-07-29T08:42:31;2.65;;;1.35;;
19285;SDS011;9776;50.798;6.430;2022-07-29T08:44:57;1.88;;;1.20;;
19285;SDS011;9776;50.798;6.430;2022-07-29T08:47:25;3.80;;;1.30;;
19285;SDS011;9776;50.798;6.430;2022-07-29T08:49:53;1.85;;;1.30;;
19285;SDS011;9776;50.798;6.430;2022-07-29T08:52:20;1.20;;;1.10;;
19285;SDS011;9776;50.798;6.430;2022-07-29T08:54:51;1.90;;;1.52;;
19285;SDS011;9776;50.798;6.430;2022-07-29T08:57:20;1.58;;;1.20;;
19285;SDS011;9776;50.798;6.430;2022-07-29T08:59:48;1.38;;;1.27;;
19285;SDS011;9776;50.798;6.430;2022-07-29T09:02:18;1.58;;;1.20;;
19285;SDS011;9776;50.798;6.430;2022-07-29T09:04:47;2.53;;;1.40;;
19285;SDS011;9776;50.798;6.430;2022-07-29T09:07:15;1.60;;;1.20;;
19285;SDS011;9776;50.798;6.430;2022-07-29T09:09:43;1.50;;;1.38;;
19285;SDS011;9776;50.798;6.430;2022-07-29T09:12:11;3.20;;;1.38;;
19285;SDS011;9776;50.798;6.430;2022-07-29T09:14:40;1.25;;;1.10;;
19285;SDS011;9776;50.798;6.430;2022-07-29T09:17:07;1.52;;;1.13;;
19285;SDS011;9776;50.798;6.430;2022-07-29T09:19:35;2.55;;;1.38;;
19285;SDS011;9776;50.798;6.430;2022-07-29T09:22:03;1.45;;;1.10;;
19285;SDS011;9776;50.798;6.430;2022-07-29T09:24:38;1.25;;;1.15;;
19285;SDS011;9776;50.798;6.430;2022-07-29T09:27:10;1.25;;;1.10;;
19285;SDS011;9776;50.798;6.430;2022-07-29T09:29:45;1.17;;;1.08;;
19285;SDS011;9776;50.798;6.430;2022-07-29T09:32:11;2.25;;;1.15;;
19285;SDS011;9776;50.798;6.430;2022-07-29T09:34:39;1.00;;;1.00;;
19285;SDS011;9776;50.798;6.430;2022-07-29T09:37:05;0.90;;;0.90;;
19285;SDS011;9776;50.798;6.430;2022-07-29T09:39:34;1.00;;;0.90;;
19285;SDS011;9776;50.798;6.430;2022-07-29T09:42:03;1.45;;;0.95;;
19285;SDS011;9776;50.798;6.430;2022-07-29T09:44:42;0.90;;;0.75;;
19285;SDS011;9776;50.798;6.430;2022-07-29T09:47:13;1.77;;;0.80;;
19285;SDS011;9776;50.798;6.430;2022-07-29T09:49:51;1.10;;;0.88;;
19285;SDS011;9776;50.798;6.430;2022-07-29T09:52:20;0.95;;;0.90;;
19285;SDS011;9776;50.798;6.430;2022-07-29T09:54:47;1.00;;;0.90;;
19285;SDS011;9776;50.798;6.430;2022-07-29T09:57:26;1.23;;;1.13;;
19285;SDS011;9776;50.798;6.430;2022-07-29T10:00:00;1.10;;;1.00;;
19285;SDS011;9776;50.798;6.430;2022-07-29T10:02:30;1.20;;;1.10;;
19285;SDS011;9776;50.798;6.430;2022-07-29T10:04:59;0.93;;;0.93;;
19285;SDS011;9776;50.798;6.430;2022-07-29T10:07:26;0.98;;;0.82;;
19285;SDS011;9776;50.798;6.430;2022-07-29T10:10:10;1.33;;;1.00;;
19285;SDS011;9776;50.798;6.430;2022-07-29T10:12:54;1.30;;;0.75;;
19285;SDS011;9776;50.798;6.430;2022-07-29T10:15:23;1.50;;;0.90;;
19285;SDS011;9776;50.798;6.430;2022-07-29T10:17:52;2.72;;;0.90;;
19285;SDS011;9776;50.798;6.430;2022-07-29T10:20:21;0.85;;;0.60;;
19285;SDS011;9776;50.798;6.430;2022-07-29T10:22:49;0.98;;;0.82;;
19285;SDS011;9776;50.798;6.430;2022-07-29T10:25:18;1.15;;;0.88;;
19285;SDS011;9776;50.798;6.430;2022-07-29T10:27:46;1.30;;;0.80;;
19285;SDS011;9776;50.798;6.430;2022-07-29T10:30:14;0.80;;;0.75;;
19285;SDS011;9776;50.798;6.430;2022-07-29T10:32:57;1.00;;;0.75;;
19285;SDS011;9776;50.798;6.430;2022-07-29T10:35:40;2.30;;;0.90;;
19285;SDS011;9776;50.798;6.430;2022-07-29T10:41:19;0.65;;;0.60;;
19285;SDS011;9776;50.798;6.430;2022-07-29T10:44:01;2.15;;;0.80;;
19285;SDS011;9776;50.798;6.430;2022-07-29T10:46:33;1.15;;;0.70;;
19285;SDS011;9776;50.798;6.430;2022-07-29T10:49:07;1.40;;;0.80;;
19285;SDS011;9776;50.798;6.430;2022-07-29T10:51:54;1.10;;;1.00;;
19285;SDS011;9776;50.798;6.430;2022-07-29T10:54:39;3.17;;;0.90;;
19285;SDS011;9776;50.798;6.430;2022-07-29T10:57:16;1.42;;;1.00;;
19285;SDS011;9776;50.798;6.430;2022-07-29T10:59:48;2.67;;;1.27;;
19285;SDS011;9776;50.798;6.430;2022-07-29T11:05:10;1.70;;;1.00;;
19285;SDS011;9776;50.798;6.430;2022-07-29T11:07:39;1.17;;;0.80;;
19285;SDS011;9776;50.798;6.430;2022-07-29T11:10:26;1.20;;;1.10;;
19285;SDS011;9776;50.798;6.430;2022-07-29T11:12:53;0.82;;;0.82;;
19285;SDS011;9776;50.798;6.430;2022-07-29T11:15:20;0.80;;;0.80;;
19285;SDS011;9776;50.798;6.430;2022-07-29T11:18:04;1.08;;;0.90;;
19285;SDS011;9776;50.798;6.430;2022-07-29T11:20:34;1.00;;;0.90;;
19285;SDS011;9776;50.798;6.430;2022-07-29T11:23:23;1.23;;;0.90;;
19285;SDS011;9776;50.798;6.430;2022-07-29T11:28:48;2.22;;;1.20;;
19285;SDS011;9776;50.798;6.430;2022-07-29T11:31:19;0.70;;;0.70;;
19285;SDS011;9776;50.798;6.430;2022-07-29T11:33:57;0.80;;;0.80;;
19285;SDS011;9776;50.798;6.430;2022-07-29T11:39:44;0.88;;;0.88;;
19285;SDS011;9776;50.798;6.430;2022-07-29T11:45:12;2.40;;;1.10;;
19285;SDS011;9776;50.798;6.430;2022-07-29T11:47:41;0.95;;;0.80;;
19285;SDS011;9776;50.798;6.430;2022-07-29T11:50:13;0.90;;;0.80;;
19285;SDS011;9776;50.798;6.430;2022-07-29T11:52:41;1.42;;;0.80;;
19285;SDS011;9776;50.798;6.430;2022-07-29T11:55:12;0.80;;;0.80;;
19285;SDS011;9776;50.798;6.430;2022-07-29T11:57:47;0.80;;;0.80;;
19285;SDS011;9776;50.798;6.430;2022-07-29T12:00:21;1.40;;;1.00;;
19285;SDS011;9776;50.798;6.430;2022-07-29T12:02:50;0.90;;;0.80;;
19285;SDS011;9776;50.798;6.430;2022-07-29T12:05:17;1.20;;;1.00;;
19285;SDS011;9776;50.798;6.430;2022-07-29T12:07:45;0.80;;;0.80;;
19285;SDS011;9776;50.798;6.430;2022-07-29T12:10:14;0.90;;;0.80;;
19285;SDS011;9776;50.798;6.430;2022-07-29T12:12:41;1.10;;;0.90;;
19285;SDS011;9776;50.798;6.430;2022-07-29T12:15:14;1.00;;;0.80;;
19285;SDS011;9776;50.798;6.430;2022-07-29T12:17:45;1.02;;;0.80;;
19285;SDS011;9776;50.798;6.430;2022-07-29T12:20:13;1.38;;;1.00;;
19285;SDS011;9776;50.798;6.430;2022-07-29T12:22:48;1.00;;;0.80;;
19285;SDS011;9776;50.798;6.430;2022-07-29T12:25:16;0.80;;;0.70;;
19285;SDS011;9776;50.798;6.430;2022-07-29T12:27:43;1.02;;;0.90;;
19285;SDS011;9776;50.798;6.430;2022-07-29T12:30:11;1.25;;;0.80;;
19285;SDS011;9776;50.798;6.430;2022-07-29T12:32:40;0.85;;;0.60;;
19285;SDS011;9776;50.798;6.430;2022-07-29T12:35:10;1.25;;;0.70;;
19285;SDS011;9776;50.798;6.430;2022-07-29T12:37:39;0.80;;;0.70;;
19285;SDS011;9776;50.798;6.430;2022-07-29T12:40:08;1.70;;;0.80;;
19285;SDS011;9776;50.798;6.430;2022-07-29T12:42:37;1.13;;;0.73;;
19285;SDS011;9776;50.798;6.430;2022-07-29T12:45:04;0.98;;;0.90;;
19285;SDS011;9776;50.798;6.430;2022-07-29T12:47:32;0.80;;;0.80;;
19285;SDS011;9776;50.798;6.430;2022-07-29T12:50:09;0.80;;;0.80;;
19285;SDS011;9776;50.798;6.430;2022-07-29T12:52:39;1.85;;;0.90;;
19285;SDS011;9776;50.798;6.430;2022-07-29T12:55:06;2.55;;;0.80;;
19285;SDS011;9776;50.798;6.430;2022-07-29T12:57:45;0.95;;;0.80;;
19285;SDS011;9776;50.798;6.430;2022-07-29T13:00:13;1.20;;;0.80;;
19285;SDS011;9776;50.798;6.430;2022-07-29T13:02:41;0.63;;;0.60;;
19285;SDS011;9776;50.798;6.430;2022-07-29T13:05:09;1.27;;;1.10;;
19285;SDS011;9776;50.798;6.430;2022-07-29T13:07:37;1.52;;;1.00;;
19285;SDS011;9776;50.798;6.430;2022-07-29T13:10:12;1.25;;;1.15;;
19285;SDS011;9776;50.798;6.430;2022-07-29T13:15:30;1.08;;;1.00;;
19285;SDS011;9776;50.798;6.430;2022-07-29T13:17:57;2.35;;;1.27;;
19285;SDS011;9776;50.798;6.430;2022-07-29T13:20:25;1.23;;;1.00;;
19285;SDS011;9776;50.798;6.430;2022-07-29T13:22:54;1.05;;;0.90;;
19285;SDS011;9776;50.798;6.430;2022-07-29T13:25:25;1.15;;;1.05;;
19285;SDS011;9776;50.798;6.430;2022-07-29T13:27:53;1.10;;;1.00;;
19285;SDS011;9776;50.798;6.430;2022-07-29T13:30:22;1.60;;;1.10;;
19285;SDS011;9776;50.798;6.430;2022-07-29T13:32:49;3.42;;;1.10;;
19285;SDS011;9776;50.798;6.430;2022-07-29T13:35:18;1.45;;;1.20;;
19285;SDS011;9776;50.798;6.430;2022-07-29T13:37:45;1.00;;;0.90;;
19285;SDS011;9776;50.798;6.430;2022-07-29T13:40:13;1.40;;;1.27;;
19285;SDS011;9776;50.798;6.430;2022-07-29T13:42:40;1.35;;;1.25;;
19285;SDS011;9776;50.798;6.430;2022-07-29T13:45:08;1.27;;;1.10;;
19285;SDS011;9776;50.798;6.430;2022-07-29T13:47:37;1.98;;;1.27;;
19285;SDS011;9776;50.798;6.430;2022-07-29T13:50:05;1.48;;;1.20;;
19285;SDS011;9776;50.798;6.430;2022-07-29T13:52:35;1.42;;;1.05;;
19285;SDS011;9776;50.798;6.430;2022-07-29T13:55:02;1.48;;;1.10;;
19285;SDS011;9776;50.798;6.430;2022-07-29T13:57:30;1.23;;;1.13;;
19285;SDS011;9776;50.798;6.430;2022-07-29T13:59:57;2.22;;;1.23;;
19285;SDS011;9776;50.798;6.430;2022-07-29T14:02:24;1.10;;;1.00;;
19285;SDS011;9776;50.798;6.430;2022-07-29T14:04:52;1.30;;;1.10;;
19285;SDS011;9776;50.798;6.430;2022-07-29T14:07:19;0.98;;;0.95;;
19285;SDS011;9776;50.798;6.430;2022-07-29T14:09:46;1.20;;;1.10;;
19285;SDS011;9776;50.798;6.430;2022-07-29T14:12:13;1.33;;;1.10;;
19285;SDS011;9776;50.798;6.430;2022-07-29T14:14:39;1.67;;;1.40;;
19285;SDS011;9776;50.798;6.430;2022-07-29T14:17:06;1.83;;;1.30;;
19285;SDS011;9776;50.798;6.430;2022-07-29T14:19:41;1.20;;;1.10;;
19285;SDS011;9776;50.798;6.430;2022-07-29T14:22:09;1.20;;;1.10;;
19285;SDS011;9776;50.798;6.430;2022-07-29T14:24:36;0.98;;;0.90;;
19285;SDS011;9776;50.798;6.430;2022-07-29T14:27:03;1.20;;;1.13;;
19285;SDS011;9776;50.798;6.430;2022-07-29T14:29:30;1.00;;;1.00;;
19285;SDS011;9776;50.798;6.430;2022-07-29T14:31:56;1.30;;;1.20;;
19285;SDS011;9776;50.798;6.430;2022-07-29T14:34:23;1.33;;;1.23;;
19285;SDS011;9776;50.798;6.430;2022-07-29T14:36:50;1.15;;;1.10;;
19285;SDS011;9776;50.798;6.430;2022-07-29T14:39:21;1.10;;;1.00;;
19285;SDS011;9776;50.798;6.430;2022-07-29T14:41:49;1.02;;;0.93;;
19285;SDS011;9776;50.798;6.430;2022-07-29T14:44:16;1.35;;;1.23;;
19285;SDS011;9776;50.798;6.430;2022-07-29T14:46:43;1.27;;;1.17;;
19285;SDS011;9776;50.798;6.430;2022-07-29T14:49:09;1.00;;;1.00;;
19285;SDS011;9776;50.798;6.430;2022-07-29T14:51:36;1.10;;;1.10;;
19285;SDS011;9776;50.798;6.430;2022-07-29T14:54:03;1.20;;;1.20;;
19285;SDS011;9776;50.798;6.430;2022-07-29T14:56:31;1.52;;;1.30;;
19285;SDS011;9776;50.798;6.430;2022-07-29T14:58:58;1.33;;;1.15;;
19285;SDS011;9776;50.798;6.430;2022-07-29T15:01:25;1.30;;;1.20;;
19285;SDS011;9776;50.798;6.430;2022-07-29T15:03:52;1.25;;;1.05;;
19285;SDS011;9776;50.798;6.430;2022-07-29T15:06:19;1.08;;;1.00;;
19285;SDS011;9776;50.798;6.430;2022-07-29T15:08:45;1.27;;;1.17;;
19285;SDS011;9776;50.798;6.430;2022-07-29T15:11:12;1.30;;;1.15;;
19285;SDS011;9776;50.798;6.430;2022-07-29T15:13:40;1.20;;;1.10;;
19285;SDS011;9776;50.798;6.430;2022-07-29T15:16:07;1.10;;;1.10;;
19285;SDS011;9776;50.798;6.430;2022-07-29T15:18:34;1.10;;;1.00;;
19285;SDS011;9776;50.798;6.430;2022-07-29T15:21:03;1.10;;;1.10;;
19285;SDS011;9776;50.798;6.430;2022-07-29T15:23:31;1.40;;;1.30;;
19285;SDS011;9776;50.798;6.430;2022-07-29T15:26:00;0.98;;;0.98;;
19285;SDS011;9776;50.798;6.430;2022-07-29T15:28:27;1.00;;;1.00;;
19285;SDS011;9776;50.798;6.430;2022-07-29T15:30:55;0.90;;;0.90;;
19285;SDS011;9776;50.798;6.430;2022-07-29T15:33:22;1.08;;;1.08;;